sensor_id;sensor_type;location;lat;lon;timestamp;P1;durP1;ratioP1;P2;durP2;ratioP2
16994;SDS011;8614;48.522;9.206;2022-07-23T00:00:11;12.07;;;11.07;;
16994;SDS011;8614;48.522;9.206;2022-07-23T00:02:40;12.27;;;11.27;;
16994;SDS011;8614;48.522;9.206;2022-07-23T00:05:07;11.67;;;10.67;;
16994;SDS011;8614;48.522;9.206;2022-07-23T00:07:35;10.77;;;9.83;;
16994;SDS011;8614;48.522;9.206;2022-07-23T00:10:01;9.57;;;8.67;;
16994;SDS011;8614;48.522;9.206;2022-07-23T00:12:28;10.07;;;9.17;;
16994;SDS011;8614;48.522;9.206;2022-07-23T00:14:55;9.30;;;7.17;;
16994;SDS011;8614;48.522;9.206;2022-07-23T00:17:22;7.93;;;7.13;;
16994;SDS011;8614;48.522;9.206;2022-07-23T00:19:50;8.93;;;8.10;;
16994;SDS011;8614;48.522;9.206;2022-07-23T00:22:18;10.07;;;9.27;;
16994;SDS011;8614;48.522;9.206;2022-07-23T00:24:45;12.80;;;11.70;;
16994;SDS011;8614;48.522;9.206;2022-07-23T00:27:12;10.53;;;9.63;;
16994;SDS011;8614;48.522;9.206;2022-07-23T00:29:38;10.60;;;9.80;;
16994;SDS011;8614;48.522;9.206;2022-07-23T00:32:06;9.17;;;8.47;;
16994;SDS011;8614;48.522;9.206;2022-07-23T00:34:33;7.90;;;7.00;;
16994;SDS011;8614;48.522;9.206;2022-07-23T00:37:01;8.97;;;8.13;;
16994;SDS011;8614;48.522;9.206;2022-07-23T00:39:28;8.57;;;7.77;;
16994;SDS011;8614;48.522;9.206;2022-07-23T00:41:55;7.70;;;7.00;;
16994;SDS011;8614;48.522;9.206;2022-07-23T00:44:22;7.30;;;6.60;;
16994;SDS011;8614;48.522;9.206;2022-07-23T00:46:51;7.63;;;6.90;;
16994;SDS011;8614;48.522;9.206;2022-07-23T00:49:20;7.70;;;6.90;;
16994;SDS011;8614;48.522;9.206;2022-07-23T00:51:47;9.13;;;8.23;;
16994;SDS011;8614;48.522;9.206;2022-07-23T00:54:16;8.67;;;7.87;;
16994;SDS011;8614;48.522;9.206;2022-07-23T00:56:44;8.03;;;7.23;;
16994;SDS011;8614;48.522;9.206;2022-07-23T00:59:12;8.57;;;7.77;;
16994;SDS011;8614;48.522;9.206;2022-07-23T01:01:40;8.87;;;8.07;;
16994;SDS011;8614;48.522;9.206;2022-07-23T01:04:09;9.40;;;8.50;;
16994;SDS011;8614;48.522;9.206;2022-07-23T01:06:37;9.40;;;8.50;;
16994;SDS011;8614;48.522;9.206;2022-07-23T01:09:05;9.90;;;9.10;;
16994;SDS011;8614;48.522;9.206;2022-07-23T01:11:34;9.00;;;8.07;;
16994;SDS011;8614;48.522;9.206;2022-07-23T01:14:11;9.73;;;8.83;;
16994;SDS011;8614;48.522;9.206;2022-07-23T01:16:39;10.17;;;9.37;;
16994;SDS011;8614;48.522;9.206;2022-07-23T01:19:06;10.90;;;10.00;;
16994;SDS011;8614;48.522;9.206;2022-07-23T01:21:37;8.93;;;8.10;;
16994;SDS011;8614;48.522;9.206;2022-07-23T01:24:07;8.00;;;6.47;;
16994;SDS011;8614;48.522;9.206;2022-07-23T01:26:38;8.40;;;7.60;;
16994;SDS011;8614;48.522;9.206;2022-07-23T01:29:07;8.33;;;7.43;;
16994;SDS011;8614;48.522;9.206;2022-07-23T01:31:34;9.13;;;8.33;;
16994;SDS011;8614;48.522;9.206;2022-07-23T01:34:01;10.03;;;9.00;;
16994;SDS011;8614;48.522;9.206;2022-07-23T01:36:29;9.57;;;8.77;;
16994;SDS011;8614;48.522;9.206;2022-07-23T01:38:56;10.47;;;9.37;;
16994;SDS011;8614;48.522;9.206;2022-07-23T01:41:24;9.83;;;8.93;;
16994;SDS011;8614;48.522;9.206;2022-07-23T01:43:51;10.40;;;9.53;;
16994;SDS011;8614;48.522;9.206;2022-07-23T01:46:18;9.73;;;8.80;;
16994;SDS011;8614;48.522;9.206;2022-07-23T01:48:48;8.40;;;7.60;;
16994;SDS011;8614;48.522;9.206;2022-07-23T01:51:32;7.97;;;7.27;;
16994;SDS011;8614;48.522;9.206;2022-07-23T01:54:08;8.10;;;7.30;;
16994;SDS011;8614;48.522;9.206;2022-07-23T01:56:37;6.77;;;6.10;;
16994;SDS011;8614;48.522;9.206;2022-07-23T01:59:04;6.60;;;5.87;;
16994;SDS011;8614;48.522;9.206;2022-07-23T02:01:30;7.37;;;6.53;;
16994;SDS011;8614;48.522;9.206;2022-07-23T02:03:58;7.00;;;6.30;;
16994;SDS011;8614;48.522;9.206;2022-07-23T02:06:25;6.47;;;5.87;;
16994;SDS011;8614;48.522;9.206;2022-07-23T02:08:51;8.83;;;6.03;;
16994;SDS011;8614;48.522;9.206;2022-07-23T02:11:21;6.53;;;5.93;;
16994;SDS011;8614;48.522;9.206;2022-07-23T02:13:49;6.60;;;6.00;;
16994;SDS011;8614;48.522;9.206;2022-07-23T02:16:15;7.70;;;6.67;;
16994;SDS011;8614;48.522;9.206;2022-07-23T02:18:42;7.90;;;6.90;;
16994;SDS011;8614;48.522;9.206;2022-07-23T02:21:10;7.43;;;6.53;;
16994;SDS011;8614;48.522;9.206;2022-07-23T02:23:36;11.13;;;10.23;;
16994;SDS011;8614;48.522;9.206;2022-07-23T02:26:03;7.20;;;6.50;;
16994;SDS011;8614;48.522;9.206;2022-07-23T02:28:30;10.30;;;9.40;;
16994;SDS011;8614;48.522;9.206;2022-07-23T02:30:58;11.17;;;10.30;;
16994;SDS011;8614;48.522;9.206;2022-07-23T02:33:25;10.53;;;9.73;;
16994;SDS011;8614;48.522;9.206;2022-07-23T02:35:53;7.43;;;6.67;;
16994;SDS011;8614;48.522;9.206;2022-07-23T02:38:21;6.87;;;6.17;;
16994;SDS011;8614;48.522;9.206;2022-07-23T02:40:48;8.00;;;7.20;;
16994;SDS011;8614;48.522;9.206;2022-07-23T02:43:16;6.83;;;6.23;;
16994;SDS011;8614;48.522;9.206;2022-07-23T02:45:44;6.60;;;6.00;;
16994;SDS011;8614;48.522;9.206;2022-07-23T02:48:12;6.60;;;5.83;;
16994;SDS011;8614;48.522;9.206;2022-07-23T02:50:42;6.00;;;5.50;;
16994;SDS011;8614;48.522;9.206;2022-07-23T02:53:12;7.07;;;6.20;;
16994;SDS011;8614;48.522;9.206;2022-07-23T02:55:40;6.33;;;5.73;;
16994;SDS011;8614;48.522;9.206;2022-07-23T02:58:07;7.23;;;6.03;;
16994;SDS011;8614;48.522;9.206;2022-07-23T03:00:34;8.20;;;7.50;;
16994;SDS011;8614;48.522;9.206;2022-07-23T03:03:00;8.10;;;7.40;;
16994;SDS011;8614;48.522;9.206;2022-07-23T03:05:29;5.77;;;5.17;;
16994;SDS011;8614;48.522;9.206;2022-07-23T03:07:56;6.70;;;6.10;;
16994;SDS011;8614;48.522;9.206;2022-07-23T03:10:23;7.33;;;5.80;;
16994;SDS011;8614;48.522;9.206;2022-07-23T03:12:49;6.87;;;6.17;;
16994;SDS011;8614;48.522;9.206;2022-07-23T03:15:16;8.87;;;8.10;;
16994;SDS011;8614;48.522;9.206;2022-07-23T03:17:43;8.33;;;7.63;;
16994;SDS011;8614;48.522;9.206;2022-07-23T03:20:10;10.80;;;10.00;;
16994;SDS011;8614;48.522;9.206;2022-07-23T03:22:39;6.53;;;5.93;;
16994;SDS011;8614;48.522;9.206;2022-07-23T03:25:06;7.13;;;6.43;;
16994;SDS011;8614;48.522;9.206;2022-07-23T03:27:34;7.77;;;6.40;;
16994;SDS011;8614;48.522;9.206;2022-07-23T03:30:01;7.50;;;6.73;;
16994;SDS011;8614;48.522;9.206;2022-07-23T03:32:29;9.77;;;8.97;;
16994;SDS011;8614;48.522;9.206;2022-07-23T03:34:56;6.37;;;5.70;;
16994;SDS011;8614;48.522;9.206;2022-07-23T03:37:24;6.63;;;6.03;;
16994;SDS011;8614;48.522;9.206;2022-07-23T03:39:52;6.97;;;6.27;;
16994;SDS011;8614;48.522;9.206;2022-07-23T03:42:19;10.57;;;9.77;;
16994;SDS011;8614;48.522;9.206;2022-07-23T03:44:46;11.67;;;10.70;;
16994;SDS011;8614;48.522;9.206;2022-07-23T03:47:13;11.10;;;10.20;;
16994;SDS011;8614;48.522;9.206;2022-07-23T03:49:40;10.77;;;9.87;;
16994;SDS011;8614;48.522;9.206;2022-07-23T03:52:08;11.27;;;10.37;;
16994;SDS011;8614;48.522;9.206;2022-07-23T03:54:35;7.47;;;6.77;;
16994;SDS011;8614;48.522;9.206;2022-07-23T03:57:03;6.60;;;6.00;;
16994;SDS011;8614;48.522;9.206;2022-07-23T03:59:29;8.17;;;7.47;;
16994;SDS011;8614;48.522;9.206;2022-07-23T04:01:56;10.97;;;10.17;;
16994;SDS011;8614;48.522;9.206;2022-07-23T04:04:24;11.23;;;10.33;;
16994;SDS011;8614;48.522;9.206;2022-07-23T04:06:51;10.30;;;9.50;;
16994;SDS011;8614;48.522;9.206;2022-07-23T04:09:18;11.57;;;10.67;;
16994;SDS011;8614;48.522;9.206;2022-07-23T04:11:45;10.70;;;9.90;;
16994;SDS011;8614;48.522;9.206;2022-07-23T04:14:13;10.17;;;9.37;;
16994;SDS011;8614;48.522;9.206;2022-07-23T04:16:40;10.00;;;9.20;;
16994;SDS011;8614;48.522;9.206;2022-07-23T04:19:08;10.23;;;9.43;;
16994;SDS011;8614;48.522;9.206;2022-07-23T04:21:50;10.10;;;9.30;;
16994;SDS011;8614;48.522;9.206;2022-07-23T04:24:16;10.13;;;9.33;;
16994;SDS011;8614;48.522;9.206;2022-07-23T04:26:44;10.10;;;9.27;;
16994;SDS011;8614;48.522;9.206;2022-07-23T04:29:11;9.73;;;9.03;;
16994;SDS011;8614;48.522;9.206;2022-07-23T04:31:39;10.37;;;9.57;;
16994;SDS011;8614;48.522;9.206;2022-07-23T04:34:06;10.20;;;9.50;;
16994;SDS011;8614;48.522;9.206;2022-07-23T04:36:33;10.63;;;9.83;;
16994;SDS011;8614;48.522;9.206;2022-07-23T04:39:00;9.20;;;8.50;;
16994;SDS011;8614;48.522;9.206;2022-07-23T04:41:27;9.77;;;8.87;;
16994;SDS011;8614;48.522;9.206;2022-07-23T04:43:54;8.03;;;7.43;;
16994;SDS011;8614;48.522;9.206;2022-07-23T04:46:21;6.60;;;5.97;;
16994;SDS011;8614;48.522;9.206;2022-07-23T04:48:51;7.30;;;6.60;;
16994;SDS011;8614;48.522;9.206;2022-07-23T04:51:18;6.50;;;5.80;;
16994;SDS011;8614;48.522;9.206;2022-07-23T04:53:45;8.07;;;7.37;;
16994;SDS011;8614;48.522;9.206;2022-07-23T04:56:12;10.53;;;9.73;;
16994;SDS011;8614;48.522;9.206;2022-07-23T04:58:39;10.30;;;9.43;;
16994;SDS011;8614;48.522;9.206;2022-07-23T05:01:06;9.57;;;8.80;;
16994;SDS011;8614;48.522;9.206;2022-07-23T05:03:34;10.20;;;9.40;;
16994;SDS011;8614;48.522;9.206;2022-07-23T05:06:02;10.37;;;9.57;;
16994;SDS011;8614;48.522;9.206;2022-07-23T05:08:30;6.57;;;5.97;;
16994;SDS011;8614;48.522;9.206;2022-07-23T05:10:58;6.50;;;5.90;;
16994;SDS011;8614;48.522;9.206;2022-07-23T05:13:24;10.27;;;9.47;;
16994;SDS011;8614;48.522;9.206;2022-07-23T05:15:52;11.00;;;10.20;;
16994;SDS011;8614;48.522;9.206;2022-07-23T05:18:20;9.90;;;9.10;;
16994;SDS011;8614;48.522;9.206;2022-07-23T05:20:47;6.50;;;5.90;;
16994;SDS011;8614;48.522;9.206;2022-07-23T05:23:20;8.77;;;8.07;;
16994;SDS011;8614;48.522;9.206;2022-07-23T05:25:48;10.67;;;9.87;;
16994;SDS011;8614;48.522;9.206;2022-07-23T05:28:16;11.00;;;10.20;;
16994;SDS011;8614;48.522;9.206;2022-07-23T05:30:43;10.87;;;9.97;;
16994;SDS011;8614;48.522;9.206;2022-07-23T05:33:12;10.27;;;9.53;;
16994;SDS011;8614;48.522;9.206;2022-07-23T05:35:40;7.07;;;6.30;;
16994;SDS011;8614;48.522;9.206;2022-07-23T05:38:29;9.20;;;8.43;;
16994;SDS011;8614;48.522;9.206;2022-07-23T05:40:58;7.60;;;6.80;;
16994;SDS011;8614;48.522;9.206;2022-07-23T05:43:26;7.47;;;6.77;;
16994;SDS011;8614;48.522;9.206;2022-07-23T05:45:55;7.87;;;6.80;;
16994;SDS011;8614;48.522;9.206;2022-07-23T05:48:23;6.90;;;6.20;;
16994;SDS011;8614;48.522;9.206;2022-07-23T05:51:00;7.20;;;6.50;;
16994;SDS011;8614;48.522;9.206;2022-07-23T05:53:32;8.23;;;6.83;;
16994;SDS011;8614;48.522;9.206;2022-07-23T05:56:01;10.40;;;9.50;;
16994;SDS011;8614;48.522;9.206;2022-07-23T05:58:30;11.07;;;10.17;;
16994;SDS011;8614;48.522;9.206;2022-07-23T06:00:56;11.00;;;10.10;;
16994;SDS011;8614;48.522;9.206;2022-07-23T06:03:24;11.37;;;10.57;;
16994;SDS011;8614;48.522;9.206;2022-07-23T06:05:51;8.87;;;8.07;;
16994;SDS011;8614;48.522;9.206;2022-07-23T06:08:18;10.80;;;9.73;;
16994;SDS011;8614;48.522;9.206;2022-07-23T06:10:46;9.00;;;8.20;;
16994;SDS011;8614;48.522;9.206;2022-07-23T06:13:13;10.07;;;9.00;;
16994;SDS011;8614;48.522;9.206;2022-07-23T06:15:40;7.13;;;6.43;;
16994;SDS011;8614;48.522;9.206;2022-07-23T06:18:07;11.03;;;10.07;;
16994;SDS011;8614;48.522;9.206;2022-07-23T06:20:34;11.27;;;10.27;;
16994;SDS011;8614;48.522;9.206;2022-07-23T06:23:00;11.20;;;10.30;;
16994;SDS011;8614;48.522;9.206;2022-07-23T06:25:27;10.57;;;9.77;;
16994;SDS011;8614;48.522;9.206;2022-07-23T06:27:55;9.40;;;8.50;;
16994;SDS011;8614;48.522;9.206;2022-07-23T06:30:25;8.60;;;7.87;;
16994;SDS011;8614;48.522;9.206;2022-07-23T06:32:52;9.70;;;8.70;;
16994;SDS011;8614;48.522;9.206;2022-07-23T06:35:19;8.40;;;7.70;;
16994;SDS011;8614;48.522;9.206;2022-07-23T06:37:46;8.67;;;7.87;;
16994;SDS011;8614;48.522;9.206;2022-07-23T06:40:13;9.13;;;8.43;;
16994;SDS011;8614;48.522;9.206;2022-07-23T06:42:40;9.43;;;8.73;;
16994;SDS011;8614;48.522;9.206;2022-07-23T06:45:15;10.87;;;10.07;;
16994;SDS011;8614;48.522;9.206;2022-07-23T06:47:41;10.40;;;9.60;;
16994;SDS011;8614;48.522;9.206;2022-07-23T06:50:09;10.80;;;9.90;;
16994;SDS011;8614;48.522;9.206;2022-07-23T06:52:36;10.27;;;9.37;;
16994;SDS011;8614;48.522;9.206;2022-07-23T06:55:04;10.13;;;9.43;;
16994;SDS011;8614;48.522;9.206;2022-07-23T06:57:32;11.17;;;10.23;;
16994;SDS011;8614;48.522;9.206;2022-07-23T06:59:59;10.37;;;9.57;;
16994;SDS011;8614;48.522;9.206;2022-07-23T07:02:27;10.77;;;9.80;;
16994;SDS011;8614;48.522;9.206;2022-07-23T07:04:54;10.20;;;9.33;;
16994;SDS011;8614;48.522;9.206;2022-07-23T07:07:21;10.20;;;9.37;;
16994;SDS011;8614;48.522;9.206;2022-07-23T07:09:48;9.93;;;9.03;;
16994;SDS011;8614;48.522;9.206;2022-07-23T07:12:15;8.93;;;8.17;;
16994;SDS011;8614;48.522;9.206;2022-07-23T07:14:42;9.37;;;8.57;;
16994;SDS011;8614;48.522;9.206;2022-07-23T07:17:09;8.73;;;8.03;;
16994;SDS011;8614;48.522;9.206;2022-07-23T07:19:37;8.80;;;8.10;;
16994;SDS011;8614;48.522;9.206;2022-07-23T07:22:04;9.37;;;8.57;;
16994;SDS011;8614;48.522;9.206;2022-07-23T07:24:31;9.37;;;8.13;;
16994;SDS011;8614;48.522;9.206;2022-07-23T07:26:57;8.93;;;8.13;;
16994;SDS011;8614;48.522;9.206;2022-07-23T07:29:24;8.90;;;8.20;;
16994;SDS011;8614;48.522;9.206;2022-07-23T07:31:52;8.50;;;7.80;;
16994;SDS011;8614;48.522;9.206;2022-07-23T07:34:18;9.37;;;8.57;;
16994;SDS011;8614;48.522;9.206;2022-07-23T07:36:47;9.83;;;8.93;;
16994;SDS011;8614;48.522;9.206;2022-07-23T07:39:15;9.67;;;8.87;;
16994;SDS011;8614;48.522;9.206;2022-07-23T07:41:41;9.70;;;8.77;;
16994;SDS011;8614;48.522;9.206;2022-07-23T07:44:08;9.67;;;8.87;;
16994;SDS011;8614;48.522;9.206;2022-07-23T07:46:35;9.17;;;8.40;;
16994;SDS011;8614;48.522;9.206;2022-07-23T07:49:02;9.90;;;9.10;;
16994;SDS011;8614;48.522;9.206;2022-07-23T07:51:28;10.60;;;9.80;;
16994;SDS011;8614;48.522;9.206;2022-07-23T07:53:57;10.27;;;9.40;;
16994;SDS011;8614;48.522;9.206;2022-07-23T07:56:23;10.37;;;9.57;;
16994;SDS011;8614;48.522;9.206;2022-07-23T07:58:50;10.10;;;9.40;;
16994;SDS011;8614;48.522;9.206;2022-07-23T08:01:17;9.83;;;9.10;;
16994;SDS011;8614;48.522;9.206;2022-07-23T08:03:45;9.40;;;8.70;;
16994;SDS011;8614;48.522;9.206;2022-07-23T08:06:12;10.33;;;9.43;;
16994;SDS011;8614;48.522;9.206;2022-07-23T08:08:39;10.53;;;9.60;;
16994;SDS011;8614;48.522;9.206;2022-07-23T08:11:07;10.87;;;9.80;;
16994;SDS011;8614;48.522;9.206;2022-07-23T08:13:34;10.27;;;9.47;;
16994;SDS011;8614;48.522;9.206;2022-07-23T08:16:01;10.43;;;9.53;;
16994;SDS011;8614;48.522;9.206;2022-07-23T08:18:27;10.27;;;9.43;;
16994;SDS011;8614;48.522;9.206;2022-07-23T08:20:54;10.33;;;9.57;;
16994;SDS011;8614;48.522;9.206;2022-07-23T08:23:21;10.80;;;9.90;;
16994;SDS011;8614;48.522;9.206;2022-07-23T08:25:48;10.00;;;9.20;;
16994;SDS011;8614;48.522;9.206;2022-07-23T08:28:16;10.33;;;9.50;;
16994;SDS011;8614;48.522;9.206;2022-07-23T08:30:43;10.50;;;9.50;;
16994;SDS011;8614;48.522;9.206;2022-07-23T08:33:11;9.83;;;9.03;;
16994;SDS011;8614;48.522;9.206;2022-07-23T08:35:40;9.90;;;9.10;;
16994;SDS011;8614;48.522;9.206;2022-07-23T08:38:10;10.50;;;9.70;;
16994;SDS011;8614;48.522;9.206;2022-07-23T08:40:37;9.70;;;8.90;;
16994;SDS011;8614;48.522;9.206;2022-07-23T08:43:06;10.27;;;9.27;;
16994;SDS011;8614;48.522;9.206;2022-07-23T08:45:36;9.60;;;8.77;;
16994;SDS011;8614;48.522;9.206;2022-07-23T08:48:06;9.50;;;8.70;;
16994;SDS011;8614;48.522;9.206;2022-07-23T08:50:34;9.47;;;8.67;;
16994;SDS011;8614;48.522;9.206;2022-07-23T08:53:04;9.70;;;8.83;;
16994;SDS011;8614;48.522;9.206;2022-07-23T08:55:33;9.27;;;8.50;;
16994;SDS011;8614;48.522;9.206;2022-07-23T08:58:00;9.37;;;8.57;;
16994;SDS011;8614;48.522;9.206;2022-07-23T09:00:27;8.80;;;8.10;;
16994;SDS011;8614;48.522;9.206;2022-07-23T09:02:56;8.93;;;8.13;;
16994;SDS011;8614;48.522;9.206;2022-07-23T09:05:23;8.80;;;8.10;;
16994;SDS011;8614;48.522;9.206;2022-07-23T09:08:09;8.33;;;7.63;;
16994;SDS011;8614;48.522;9.206;2022-07-23T09:10:42;10.00;;;9.20;;
16994;SDS011;8614;48.522;9.206;2022-07-23T09:16:12;10.37;;;9.57;;
16994;SDS011;8614;48.522;9.206;2022-07-23T09:18:44;9.90;;;9.20;;
16994;SDS011;8614;48.522;9.206;2022-07-23T09:23:58;8.77;;;7.97;;
16994;SDS011;8614;48.522;9.206;2022-07-23T09:26:28;8.60;;;7.90;;
16994;SDS011;8614;48.522;9.206;2022-07-23T09:29:01;8.70;;;8.00;;
16994;SDS011;8614;48.522;9.206;2022-07-23T09:31:35;8.57;;;7.87;;
16994;SDS011;8614;48.522;9.206;2022-07-23T09:34:12;9.53;;;8.83;;
16994;SDS011;8614;48.522;9.206;2022-07-23T09:36:42;9.53;;;8.83;;
16994;SDS011;8614;48.522;9.206;2022-07-23T09:39:09;9.73;;;8.93;;
16994;SDS011;8614;48.522;9.206;2022-07-23T09:41:38;10.57;;;9.73;;
16994;SDS011;8614;48.522;9.206;2022-07-23T09:44:08;8.80;;;8.00;;
16994;SDS011;8614;48.522;9.206;2022-07-23T09:46:39;8.60;;;7.90;;
16994;SDS011;8614;48.522;9.206;2022-07-23T09:49:11;8.80;;;8.00;;
16994;SDS011;8614;48.522;9.206;2022-07-23T09:51:44;9.07;;;8.17;;
16994;SDS011;8614;48.522;9.206;2022-07-23T09:54:20;10.13;;;9.33;;
16994;SDS011;8614;48.522;9.206;2022-07-23T09:56:58;10.47;;;9.57;;
16994;SDS011;8614;48.522;9.206;2022-07-23T09:59:30;10.63;;;9.77;;
16994;SDS011;8614;48.522;9.206;2022-07-23T10:02:01;10.70;;;9.80;;
16994;SDS011;8614;48.522;9.206;2022-07-23T10:04:36;10.07;;;9.30;;
16994;SDS011;8614;48.522;9.206;2022-07-23T10:07:14;11.10;;;10.30;;
16994;SDS011;8614;48.522;9.206;2022-07-23T10:10:02;10.43;;;9.60;;
16994;SDS011;8614;48.522;9.206;2022-07-23T10:12:48;10.10;;;9.27;;
16994;SDS011;8614;48.522;9.206;2022-07-23T10:15:41;10.97;;;10.17;;
16994;SDS011;8614;48.522;9.206;2022-07-23T10:18:09;9.10;;;8.40;;
16994;SDS011;8614;48.522;9.206;2022-07-23T10:20:38;10.00;;;9.20;;
16994;SDS011;8614;48.522;9.206;2022-07-23T10:23:07;10.15;;;9.35;;
16994;SDS011;8614;48.522;9.206;2022-07-23T10:25:41;10.07;;;9.27;;
16994;SDS011;8614;48.522;9.206;2022-07-23T10:28:20;9.90;;;9.00;;
16994;SDS011;8614;48.522;9.206;2022-07-23T10:31:02;8.97;;;8.17;;
16994;SDS011;8614;48.522;9.206;2022-07-23T10:33:38;8.87;;;8.07;;
16994;SDS011;8614;48.522;9.206;2022-07-23T10:36:15;8.70;;;8.00;;
16994;SDS011;8614;48.522;9.206;2022-07-23T10:38:48;9.53;;;8.67;;
16994;SDS011;8614;48.522;9.206;2022-07-23T10:41:30;8.87;;;8.07;;
16994;SDS011;8614;48.522;9.206;2022-07-23T10:44:08;9.00;;;8.20;;
16994;SDS011;8614;48.522;9.206;2022-07-23T10:46:37;8.47;;;7.70;;
16994;SDS011;8614;48.522;9.206;2022-07-23T10:49:26;8.70;;;8.00;;
16994;SDS011;8614;48.522;9.206;2022-07-23T10:54:55;9.50;;;8.60;;
16994;SDS011;8614;48.522;9.206;2022-07-23T10:57:48;10.37;;;9.47;;
16994;SDS011;8614;48.522;9.206;2022-07-23T11:00:16;11.00;;;10.10;;
16994;SDS011;8614;48.522;9.206;2022-07-23T11:02:48;10.50;;;9.60;;
16994;SDS011;8614;48.522;9.206;2022-07-23T11:05:17;10.20;;;9.50;;
16994;SDS011;8614;48.522;9.206;2022-07-23T11:10:40;10.00;;;9.20;;
16994;SDS011;8614;48.522;9.206;2022-07-23T11:16:04;9.33;;;8.53;;
16994;SDS011;8614;48.522;9.206;2022-07-23T11:18:57;9.57;;;8.87;;
16994;SDS011;8614;48.522;9.206;2022-07-23T11:21:44;9.70;;;8.87;;
16994;SDS011;8614;48.522;9.206;2022-07-23T11:24:13;9.83;;;9.03;;
16994;SDS011;8614;48.522;9.206;2022-07-23T11:26:45;9.47;;;8.67;;
16994;SDS011;8614;48.522;9.206;2022-07-23T11:32:22;10.50;;;9.60;;
16994;SDS011;8614;48.522;9.206;2022-07-23T11:35:00;10.37;;;9.57;;
16994;SDS011;8614;48.522;9.206;2022-07-23T11:37:29;10.97;;;10.17;;
16994;SDS011;8614;48.522;9.206;2022-07-23T11:39:59;9.33;;;8.47;;
16994;SDS011;8614;48.522;9.206;2022-07-23T11:42:26;7.23;;;6.40;;
16994;SDS011;8614;48.522;9.206;2022-07-23T11:44:55;9.13;;;8.37;;
16994;SDS011;8614;48.522;9.206;2022-07-23T11:47:22;8.17;;;7.47;;
16994;SDS011;8614;48.522;9.206;2022-07-23T11:49:53;9.10;;;8.20;;
16994;SDS011;8614;48.522;9.206;2022-07-23T11:52:21;7.37;;;6.23;;
16994;SDS011;8614;48.522;9.206;2022-07-23T11:54:49;7.80;;;7.07;;
16994;SDS011;8614;48.522;9.206;2022-07-23T11:57:18;6.33;;;5.70;;
16994;SDS011;8614;48.522;9.206;2022-07-23T11:59:46;9.10;;;8.23;;
16994;SDS011;8614;48.522;9.206;2022-07-23T12:02:19;7.67;;;6.87;;
16994;SDS011;8614;48.522;9.206;2022-07-23T12:04:47;7.07;;;6.37;;
16994;SDS011;8614;48.522;9.206;2022-07-23T12:07:27;7.00;;;6.30;;
16994;SDS011;8614;48.522;9.206;2022-07-23T12:09:57;6.00;;;5.40;;
16994;SDS011;8614;48.522;9.206;2022-07-23T12:12:26;7.00;;;6.20;;
16994;SDS011;8614;48.522;9.206;2022-07-23T12:14:53;8.27;;;7.47;;
16994;SDS011;8614;48.522;9.206;2022-07-23T12:17:28;8.93;;;8.13;;
16994;SDS011;8614;48.522;9.206;2022-07-23T12:19:56;8.90;;;8.10;;
16994;SDS011;8614;48.522;9.206;2022-07-23T12:22:24;6.07;;;5.57;;
16994;SDS011;8614;48.522;9.206;2022-07-23T12:25:00;7.10;;;6.40;;
16994;SDS011;8614;48.522;9.206;2022-07-23T12:27:29;7.13;;;6.17;;
16994;SDS011;8614;48.522;9.206;2022-07-23T12:29:57;7.60;;;6.00;;
16994;SDS011;8614;48.522;9.206;2022-07-23T12:32:24;6.43;;;5.83;;
16994;SDS011;8614;48.522;9.206;2022-07-23T12:35:03;6.83;;;5.70;;
16994;SDS011;8614;48.522;9.206;2022-07-23T12:37:32;7.17;;;6.47;;
16994;SDS011;8614;48.522;9.206;2022-07-23T12:42:49;6.87;;;6.27;;
16994;SDS011;8614;48.522;9.206;2022-07-23T12:45:17;9.37;;;8.03;;
16994;SDS011;8614;48.522;9.206;2022-07-23T12:50:37;10.17;;;9.37;;
16994;SDS011;8614;48.522;9.206;2022-07-23T12:53:11;10.30;;;9.40;;
16994;SDS011;8614;48.522;9.206;2022-07-23T12:55:41;9.33;;;7.80;;
16994;SDS011;8614;48.522;9.206;2022-07-23T12:58:09;6.90;;;6.20;;
16994;SDS011;8614;48.522;9.206;2022-07-23T13:00:58;8.20;;;7.40;;
16994;SDS011;8614;48.522;9.206;2022-07-23T13:03:34;6.57;;;5.93;;
16994;SDS011;8614;48.522;9.206;2022-07-23T13:06:05;9.63;;;8.93;;
16994;SDS011;8614;48.522;9.206;2022-07-23T13:08:34;10.40;;;7.43;;
16994;SDS011;8614;48.522;9.206;2022-07-23T13:11:02;9.40;;;8.57;;
16994;SDS011;8614;48.522;9.206;2022-07-23T13:13:30;9.77;;;8.87;;
16994;SDS011;8614;48.522;9.206;2022-07-23T13:15:59;8.97;;;8.23;;
16994;SDS011;8614;48.522;9.206;2022-07-23T13:18:26;9.07;;;8.27;;
16994;SDS011;8614;48.522;9.206;2022-07-23T13:20:54;8.50;;;7.73;;
16994;SDS011;8614;48.522;9.206;2022-07-23T13:23:23;9.13;;;8.43;;
16994;SDS011;8614;48.522;9.206;2022-07-23T13:25:50;9.13;;;8.30;;
16994;SDS011;8614;48.522;9.206;2022-07-23T13:28:17;8.40;;;7.60;;
16994;SDS011;8614;48.522;9.206;2022-07-23T13:30:46;7.97;;;7.37;;
16994;SDS011;8614;48.522;9.206;2022-07-23T13:33:15;8.10;;;7.40;;
16994;SDS011;8614;48.522;9.206;2022-07-23T13:35:42;7.27;;;6.57;;
16994;SDS011;8614;48.522;9.206;2022-07-23T13:38:09;7.80;;;7.10;;
16994;SDS011;8614;48.522;9.206;2022-07-23T13:40:38;8.00;;;7.30;;
16994;SDS011;8614;48.522;9.206;2022-07-23T13:43:07;8.07;;;7.37;;
16994;SDS011;8614;48.522;9.206;2022-07-23T13:45:34;9.40;;;8.50;;
16994;SDS011;8614;48.522;9.206;2022-07-23T13:48:02;9.23;;;8.30;;
16994;SDS011;8614;48.522;9.206;2022-07-23T13:50:30;8.50;;;7.80;;
16994;SDS011;8614;48.522;9.206;2022-07-23T13:52:57;8.40;;;7.60;;
16994;SDS011;8614;48.522;9.206;2022-07-23T13:55:27;9.27;;;8.57;;
16994;SDS011;8614;48.522;9.206;2022-07-23T13:57:55;8.60;;;7.80;;
16994;SDS011;8614;48.522;9.206;2022-07-23T14:00:22;9.73;;;8.93;;
16994;SDS011;8614;48.522;9.206;2022-07-23T14:02:49;9.37;;;8.57;;
16994;SDS011;8614;48.522;9.206;2022-07-23T14:05:15;9.33;;;8.43;;
16994;SDS011;8614;48.522;9.206;2022-07-23T14:07:42;9.30;;;8.30;;
16994;SDS011;8614;48.522;9.206;2022-07-23T14:10:12;9.20;;;8.27;;
16994;SDS011;8614;48.522;9.206;2022-07-23T14:12:39;9.33;;;8.63;;
16994;SDS011;8614;48.522;9.206;2022-07-23T14:15:07;7.68;;;7.07;;
16994;SDS011;8614;48.522;9.206;2022-07-23T14:17:35;8.73;;;7.93;;
16994;SDS011;8614;48.522;9.206;2022-07-23T14:20:02;9.63;;;8.83;;
16994;SDS011;8614;48.522;9.206;2022-07-23T14:22:30;9.27;;;8.37;;
16994;SDS011;8614;48.522;9.206;2022-07-23T14:24:57;9.40;;;8.60;;
16994;SDS011;8614;48.522;9.206;2022-07-23T14:27:24;9.10;;;8.30;;
16994;SDS011;8614;48.522;9.206;2022-07-23T14:29:51;8.73;;;7.93;;
16994;SDS011;8614;48.522;9.206;2022-07-23T14:32:20;9.10;;;8.30;;
16994;SDS011;8614;48.522;9.206;2022-07-23T14:34:47;8.60;;;7.90;;
16994;SDS011;8614;48.522;9.206;2022-07-23T14:37:14;8.60;;;7.90;;
16994;SDS011;8614;48.522;9.206;2022-07-23T14:39:42;8.00;;;7.30;;
16994;SDS011;8614;48.522;9.206;2022-07-23T14:42:09;10.63;;;7.63;;
16994;SDS011;8614;48.522;9.206;2022-07-23T14:44:36;8.57;;;7.67;;
16994;SDS011;8614;48.522;9.206;2022-07-23T14:47:04;7.70;;;7.10;;
16994;SDS011;8614;48.522;9.206;2022-07-23T14:49:32;7.60;;;7.00;;
16994;SDS011;8614;48.522;9.206;2022-07-23T14:52:00;7.93;;;7.23;;
16994;SDS011;8614;48.522;9.206;2022-07-23T14:54:27;8.33;;;7.63;;
16994;SDS011;8614;48.522;9.206;2022-07-23T14:56:55;7.93;;;7.23;;
16994;SDS011;8614;48.522;9.206;2022-07-23T14:59:23;8.27;;;7.50;;
16994;SDS011;8614;48.522;9.206;2022-07-23T15:01:50;8.25;;;7.55;;
16994;SDS011;8614;48.522;9.206;2022-07-23T15:04:17;9.10;;;8.37;;
16994;SDS011;8614;48.522;9.206;2022-07-23T15:06:46;9.27;;;8.47;;
16994;SDS011;8614;48.522;9.206;2022-07-23T15:09:13;9.00;;;8.30;;
16994;SDS011;8614;48.522;9.206;2022-07-23T15:11:40;9.07;;;8.27;;
16994;SDS011;8614;48.522;9.206;2022-07-23T15:14:07;9.47;;;8.67;;
16994;SDS011;8614;48.522;9.206;2022-07-23T15:16:35;9.87;;;8.90;;
16994;SDS011;8614;48.522;9.206;2022-07-23T15:19:02;9.30;;;8.50;;
16994;SDS011;8614;48.522;9.206;2022-07-23T15:21:30;8.17;;;7.40;;
16994;SDS011;8614;48.522;9.206;2022-07-23T15:23:58;9.40;;;8.50;;
16994;SDS011;8614;48.522;9.206;2022-07-23T15:26:25;8.70;;;8.00;;
16994;SDS011;8614;48.522;9.206;2022-07-23T15:28:53;9.17;;;8.40;;